Terminal Aerodrome Forecast
Issued by NWS

Home | Current Version | Previous Version | Text Only | Print | Product List | Glossary On
Versions: 1 2 3 4 5 6 7 8 9 10 11 12 13 14 15
000
FTUS42 KMLB 220500
TAFSUA
TAF
KSUA 220540Z 2206/2306 28003KT P6SM BKN250
     FM221500 10004KT P6SM SCT025 BKN200
     FM221700 11008KT P6SM VCTS SCT035CB SCT100 BKN150 PROB30
      2217/2220 3SM TSRA BKN025CB
     FM230100 16002KT P6SM SCT050 BKN150=

USA.gov is the U.S. government's official web portal to all federal, state and local government web resources and services.